Time;durP1;ratioP1;P1;durP2;ratioP2;P2;SDS_P1;SDS_P2;PMS_P1;PMS_P2;Temp;Humidity;BMP_temperature;BMP_pressure;BME280_temperature;BME280_humidity;BME280_pressure;Samples;Min_cycle;Max_cycle;Signal;HPM_P1;HPM_P2
2023/11/14 05:00:14;;;;;;;5.00;2.10;;;11.60;99.90;;;;;;6006321;23;20302;31
2023/11/14 05:02:40;;;;;;;5.17;1.33;;;11.60;99.90;;;;;;4932988;28;20241;-76
2023/11/14 05:05:07;;;;;;;3.40;1.25;;;11.70;99.90;;;;;;4933215;29;20470;-76
2023/11/14 05:07:34;;;;;;;9.23;2.33;;;11.70;99.90;;;;;;4933125;29;20213;-74
2023/11/14 05:10:01;;;;;;;3.05;1.60;;;11.70;99.90;;;;;;4929713;29;20229;-74
2023/11/14 05:12:28;;;;;;;2.97;1.73;;;11.70;99.90;;;;;;4907315;29;20223;-74
2023/11/14 05:14:54;;;;;;;5.05;1.80;;;11.70;99.90;;;;;;4913508;29;20747;-74
2023/11/14 05:17:22;;;;;;;9.38;1.80;;;11.70;99.90;;;;;;4922224;29;20214;-74
2023/11/14 05:19:50;;;;;;;8.70;1.95;;;11.70;99.90;;;;;;4916601;29;20285;-73
2023/11/14 05:22:17;;;;;;;1.80;1.58;;;11.70;99.90;;;;;;4925074;29;20221;-73
2023/11/14 05:24:44;;;;;;;4.75;1.60;;;11.70;99.90;;;;;;4923050;29;20207;-73
2023/11/14 05:27:11;;;;;;;4.00;1.42;;;11.70;99.90;;;;;;4904857;29;20297;-74
2023/11/14 05:29:37;;;;;;;20.42;2.35;;;11.70;99.90;;;;;;4913691;29;20206;-74
2023/11/14 05:32:05;;;;;;;1.43;1.33;;;11.70;99.90;;;;;;4982434;23;20227;-74
2023/11/14 05:34:33;;;;;;;3.78;1.88;;;11.70;99.90;;;;;;4995321;28;20460;-74
2023/11/14 05:36:59;;;;;;;6.63;2.17;;;11.70;99.90;;;;;;4983840;28;20210;-74
2023/11/14 05:39:26;;;;;;;2.10;1.40;;;11.70;99.90;;;;;;4986759;28;20216;-74
2023/11/14 05:41:53;;;;;;;10.98;1.90;;;11.70;99.90;;;;;;4975964;28;20495;-74
2023/11/14 05:44:20;;;;;;;7.03;1.83;;;11.60;99.90;;;;;;4971600;28;20557;-74
2023/11/14 05:46:46;;;;;;;4.25;2.33;;;11.60;99.90;;;;;;4968830;28;20212;-74
2023/11/14 05:49:13;;;;;;;7.45;1.95;;;11.60;99.90;;;;;;4972380;28;20216;-74
2023/11/14 05:51:41;;;;;;;2.03;1.60;;;11.60;99.90;;;;;;4968815;28;20733;-74
2023/11/14 05:54:08;;;;;;;6.47;2.15;;;11.50;99.90;;;;;;4971305;28;20311;-73
2023/11/14 05:56:35;;;;;;;4.82;1.65;;;11.50;99.90;;;;;;4968611;28;20204;-74
2023/11/14 05:59:02;;;;;;;7.05;1.90;;;11.50;99.90;;;;;;4966679;28;20219;-74
2023/11/14 06:01:29;;;;;;;7.00;1.67;;;11.50;99.90;;;;;;4969360;28;20230;-73
2023/11/14 06:03:55;;;;;;;3.70;1.30;;;11.50;99.90;;;;;;4972539;28;20209;-74
2023/11/14 06:06:22;;;;;;;1.90;1.20;;;11.60;99.90;;;;;;4969413;28;20213;-75
2023/11/14 06:08:50;;;;;;;3.05;1.55;;;11.60;99.90;;;;;;4971481;28;20204;-73
2023/11/14 06:11:17;;;;;;;6.28;1.48;;;11.60;99.90;;;;;;4967384;28;20204;-73
2023/11/14 06:13:44;;;;;;;2.28;2.17;;;11.60;99.90;;;;;;4970018;28;20209;-74
2023/11/14 06:16:12;;;;;;;3.60;2.33;;;11.60;99.90;;;;;;4969942;28;20208;-73
2023/11/14 06:18:38;;;;;;;5.78;1.70;;;11.60;99.90;;;;;;4972802;28;20456;-74
2023/11/14 06:21:05;;;;;;;5.07;2.67;;;11.60;99.90;;;;;;4971250;28;20213;-74
2023/11/14 06:23:32;;;;;;;3.73;1.47;;;11.60;99.90;;;;;;4970096;28;20499;-74
2023/11/14 06:26:00;;;;;;;7.83;1.87;;;11.60;99.90;;;;;;4968889;28;20479;-72
2023/11/14 06:28:27;;;;;;;3.30;1.90;;;11.60;99.90;;;;;;4970970;28;20471;-72
2023/11/14 06:30:54;;;;;;;6.85;1.65;;;11.50;99.90;;;;;;4968373;28;20476;-72
2023/11/14 06:33:20;;;;;;;4.97;1.60;;;11.50;99.90;;;;;;4970291;28;20236;-72
2023/11/14 06:35:48;;;;;;;7.03;1.70;;;11.60;99.90;;;;;;4964284;28;20205;-72
2023/11/14 06:38:15;;;;;;;2.33;1.33;;;11.60;99.90;;;;;;4964568;28;20208;-72
2023/11/14 06:40:44;;;;;;;2.25;1.65;;;11.50;99.90;;;;;;4969615;28;20204;-71
2023/11/14 06:43:12;;;;;;;3.47;1.75;;;11.50;99.90;;;;;;4968716;28;20280;-73
2023/11/14 06:45:39;;;;;;;1.35;1.25;;;11.50;99.90;;;;;;4963233;28;20205;-73
2023/11/14 06:48:06;;;;;;;3.25;1.75;;;11.40;99.90;;;;;;4968014;28;20216;-72
2023/11/14 06:50:32;;;;;;;1.95;1.52;;;11.40;99.90;;;;;;4969451;28;20228;-72
2023/11/14 06:52:59;;;;;;;4.85;2.55;;;11.40;99.90;;;;;;4970473;28;20585;-72
2023/11/14 06:55:26;;;;;;;5.63;2.90;;;11.40;99.90;;;;;;4967509;28;20204;-73
2023/11/14 06:57:53;;;;;;;5.95;1.77;;;11.40;99.90;;;;;;4967209;28;20204;-73
2023/11/14 07:00:21;;;;;;;6.53;1.67;;;11.40;99.90;;;;;;4965933;28;20208;-73
2023/11/14 07:02:48;;;;;;;7.90;1.70;;;11.50;99.90;;;;;;4971963;28;20227;-73
2023/11/14 07:05:15;;;;;;;5.75;1.83;;;11.50;99.90;;;;;;4972722;28;20231;-74
2023/11/14 07:07:44;;;;;;;4.68;2.28;;;11.50;99.90;;;;;;4971281;28;20215;-73
2023/11/14 07:10:11;;;;;;;4.68;1.88;;;11.50;99.90;;;;;;4963504;28;20238;-74
2023/11/14 07:12:40;;;;;;;4.00;1.42;;;11.50;99.90;;;;;;4964630;28;20220;-72
2023/11/14 07:15:10;;;;;;;3.87;1.63;;;11.50;99.90;;;;;;4967953;28;20209;-72
2023/11/14 07:17:39;;;;;;;4.03;1.70;;;11.60;99.90;;;;;;4969381;28;20499;-73
2023/11/14 07:20:10;;;;;;;4.23;2.07;;;11.60;99.90;;;;;;4968454;28;20671;-75
2023/11/14 07:22:39;;;;;;;4.10;1.57;;;11.60;99.90;;;;;;4963528;28;22287;-74
2023/11/14 07:25:06;;;;;;;3.22;1.60;;;11.70;99.90;;;;;;4969723;28;20476;-74
2023/11/14 07:27:32;;;;;;;10.70;2.38;;;11.70;99.90;;;;;;4968928;28;20271;-74
2023/11/14 07:29:59;;;;;;;3.70;1.02;;;11.70;99.90;;;;;;4967975;28;20859;-75
2023/11/14 07:32:26;;;;;;;6.85;1.75;;;11.70;99.90;;;;;;4969424;28;20601;-73
2023/11/14 07:34:55;;;;;;;4.73;2.43;;;11.70;99.90;;;;;;4969447;28;20204;-73
2023/11/14 07:37:22;;;;;;;1.23;1.13;;;11.70;99.90;;;;;;4970031;28;20483;-73
2023/11/14 07:39:49;;;;;;;6.72;2.25;;;11.70;99.90;;;;;;4969472;28;20208;-73
2023/11/14 07:42:15;;;;;;;2.67;1.10;;;11.70;99.90;;;;;;4969539;28;20718;-73
2023/11/14 07:44:42;;;;;;;5.40;2.13;;;11.70;99.90;;;;;;4969178;28;20208;-73
2023/11/14 07:47:09;;;;;;;0.87;0.87;;;11.70;99.90;;;;;;4968722;28;20468;-73
2023/11/14 07:49:38;;;;;;;5.50;1.60;;;11.70;99.90;;;;;;4958337;28;20471;-74
2023/11/14 07:52:07;;;;;;;6.38;1.65;;;11.60;99.90;;;;;;4952629;28;20602;-74
2023/11/14 07:54:34;;;;;;;3.93;1.37;;;11.60;99.90;;;;;;4954811;28;20213;-73
2023/11/14 07:57:02;;;;;;;1.00;0.98;;;11.60;99.90;;;;;;4957957;28;21069;-73
2023/11/14 07:59:30;;;;;;;3.20;1.15;;;11.60;99.90;;;;;;4953865;28;20580;-73
2023/11/14 08:01:57;;;;;;;2.93;1.20;;;11.60;99.90;;;;;;4957656;28;20233;-74
2023/11/14 08:04:24;;;;;;;3.72;1.48;;;11.70;99.90;;;;;;4961630;28;20478;-73
2023/11/14 08:06:51;;;;;;;3.60;1.52;;;11.70;99.90;;;;;;4958042;28;20219;-72
2023/11/14 08:09:20;;;;;;;3.60;1.10;;;11.70;99.90;;;;;;4957850;28;20243;-72
2023/11/14 08:11:47;;;;;;;1.40;1.17;;;11.70;99.90;;;;;;4958828;28;20328;-73
2023/11/14 08:14:13;;;;;;;9.40;3.27;;;11.70;99.90;;;;;;4959326;28;20470;-72
2023/11/14 08:16:40;;;;;;;4.53;1.50;;;11.70;99.90;;;;;;4960307;28;20494;-74
2023/11/14 08:19:07;;;;;;;0.80;0.80;;;11.70;99.90;;;;;;4958038;28;20492;-74
2023/11/14 08:21:34;;;;;;;3.40;1.53;;;11.60;99.90;;;;;;4958198;28;20471;-77
2023/11/14 08:24:00;;;;;;;4.13;1.42;;;11.70;99.90;;;;;;4960971;28;21139;-73
2023/11/14 08:26:29;;;;;;;2.67;1.27;;;11.70;99.90;;;;;;4958794;28;20224;-72
2023/11/14 08:28:56;;;;;;;3.88;1.92;;;11.80;99.90;;;;;;4960404;28;20962;-73
2023/11/14 08:31:23;;;;;;;11.10;1.70;;;11.80;99.90;;;;;;4959166;28;20693;-73
2023/11/14 08:33:49;;;;;;;7.50;1.40;;;11.80;99.90;;;;;;4958158;28;20472;-72
2023/11/14 08:36:16;;;;;;;5.00;1.80;;;11.90;99.90;;;;;;4959137;28;20547;-74
2023/11/14 08:38:43;;;;;;;2.10;1.90;;;11.90;99.90;;;;;;4957405;28;20471;-73
2023/11/14 08:41:09;;;;;;;7.67;2.60;;;11.90;99.90;;;;;;4956760;28;20566;-72
2023/11/14 08:43:40;;;;;;;7.53;2.13;;;12.00;99.90;;;;;;4957889;28;20491;-71
2023/11/14 08:46:07;;;;;;;4.07;1.13;;;12.00;99.90;;;;;;4958947;28;20504;-73
2023/11/14 08:48:34;;;;;;;4.23;1.10;;;12.00;99.90;;;;;;4957523;28;20994;-71
2023/11/14 08:51:01;;;;;;;1.00;0.73;;;12.10;99.90;;;;;;4959390;28;22184;-74
2023/11/14 08:53:28;;;;;;;2.00;1.80;;;12.10;99.90;;;;;;4958166;28;20486;-72
2023/11/14 08:55:55;;;;;;;1.83;0.90;;;12.10;99.90;;;;;;4960212;28;20468;-74
2023/11/14 08:58:22;;;;;;;1.70;1.37;;;12.10;99.90;;;;;;4957226;28;20480;-74
2023/11/14 09:00:51;;;;;;;1.90;1.20;;;12.10;99.90;;;;;;4958161;28;20476;-72
2023/11/14 09:03:18;;;;;;;3.20;1.07;;;12.10;99.90;;;;;;4960340;28;20805;-72
2023/11/14 09:05:44;;;;;;;2.40;0.93;;;12.20;99.90;;;;;;4958333;28;20467;-73
2023/11/14 09:08:11;;;;;;;7.93;1.80;;;12.20;99.90;;;;;;4957578;28;20483;-73
2023/11/14 09:10:38;;;;;;;0.67;0.67;;;12.20;99.90;;;;;;4958824;28;20464;-73
2023/11/14 09:13:05;;;;;;;4.57;1.60;;;12.20;99.90;;;;;;4956409;28;20536;-73
2023/11/14 09:15:32;;;;;;;4.33;1.40;;;12.20;99.90;;;;;;4957751;28;20472;-72
2023/11/14 09:18:00;;;;;;;2.77;1.20;;;12.20;99.90;;;;;;4957719;28;20494;-72
2023/11/14 09:20:26;;;;;;;2.10;0.70;;;12.20;99.90;;;;;;4959225;28;20466;-73
2023/11/14 09:22:54;;;;;;;2.03;1.07;;;12.20;99.90;;;;;;4958821;28;20586;-73
2023/11/14 09:25:21;;;;;;;2.97;1.37;;;12.30;99.90;;;;;;4972708;28;20497;-72
2023/11/14 09:27:48;;;;;;;6.73;3.63;;;12.20;99.90;;;;;;4972844;28;20804;-72
2023/11/14 09:30:16;;;;;;;7.43;1.60;;;12.20;99.90;;;;;;4972081;28;20500;-72
2023/11/14 09:32:43;;;;;;;2.97;1.30;;;12.20;99.90;;;;;;4966224;28;21141;-72
2023/11/14 09:35:11;;;;;;;1.30;0.90;;;12.20;99.90;;;;;;4973448;28;20464;-71
2023/11/14 09:37:37;;;;;;;2.93;1.13;;;12.20;99.90;;;;;;4972497;28;20519;-71
2023/11/14 09:40:06;;;;;;;4.63;1.20;;;12.20;99.90;;;;;;4973205;28;20462;-72
2023/11/14 09:42:33;;;;;;;2.57;1.70;;;12.30;99.90;;;;;;4971974;28;20491;-73
2023/11/14 09:45:00;;;;;;;1.33;1.27;;;12.30;99.90;;;;;;4972989;28;20528;-73
2023/11/14 09:47:27;;;;;;;3.20;1.43;;;12.30;99.90;;;;;;4973152;28;20471;-73
2023/11/14 09:49:54;;;;;;;4.13;1.70;;;12.30;99.90;;;;;;4973195;28;21001;-74
2023/11/14 09:52:22;;;;;;;2.67;1.70;;;12.40;99.90;;;;;;4970762;28;20500;-75
2023/11/14 09:54:49;;;;;;;10.87;2.40;;;12.40;99.90;;;;;;4973866;28;20958;-73
2023/11/14 09:57:18;;;;;;;1.67;1.50;;;12.50;99.90;;;;;;4972618;28;20831;-72
2023/11/14 09:59:45;;;;;;;5.33;2.07;;;12.60;99.90;;;;;;4972979;28;20464;-72
2023/11/14 10:02:12;;;;;;;7.17;3.80;;;12.60;99.90;;;;;;4969142;28;20504;-73
2023/11/14 10:04:40;;;;;;;2.80;2.17;;;12.70;99.90;;;;;;4969048;28;20490;-73
2023/11/14 10:07:08;;;;;;;8.13;1.87;;;12.80;99.90;;;;;;4971306;28;20473;-73
2023/11/14 10:09:37;;;;;;;6.80;2.27;;;12.90;99.90;;;;;;4972030;28;20496;-73
2023/11/14 10:12:04;;;;;;;4.10;1.30;;;12.90;99.90;;;;;;4972337;28;21043;-72
2023/11/14 10:14:43;;;;;;;6.00;1.43;;;12.90;99.90;;;;;;4971862;28;20466;-73
2023/11/14 10:17:12;;;;;;;5.70;1.57;;;12.80;99.90;;;;;;4972180;28;20470;-74
2023/11/14 10:19:56;;;;;;;8.17;1.70;;;12.70;99.90;;;;;;4971443;28;20469;-72
2023/11/14 10:22:23;;;;;;;5.13;2.57;;;12.70;99.90;;;;;;4969804;28;20481;-73
2023/11/14 10:24:52;;;;;;;2.13;1.80;;;12.70;99.90;;;;;;4967521;28;21320;-72
2023/11/14 10:27:26;;;;;;;2.77;1.37;;;12.70;99.90;;;;;;4971603;28;20465;-73
2023/11/14 10:29:54;;;;;;;5.20;1.70;;;12.60;99.90;;;;;;4971781;28;20496;-72
2023/11/14 10:32:23;;;;;;;7.30;2.00;;;12.60;99.90;;;;;;4971667;28;20493;-73
2023/11/14 10:34:51;;;;;;;4.63;1.40;;;12.60;99.90;;;;;;4976457;28;20468;-72
2023/11/14 10:37:29;;;;;;;4.13;1.47;;;12.70;99.90;;;;;;4976024;28;20543;-71
2023/11/14 10:39:58;;;;;;;3.60;1.10;;;12.80;99.90;;;;;;4972365;28;20809;-72
2023/11/14 10:42:26;;;;;;;4.00;1.50;;;12.90;99.90;;;;;;4965768;28;20524;-72
2023/11/14 10:44:59;;;;;;;1.33;0.93;;;13.00;99.90;;;;;;4969865;28;20490;-72
2023/11/14 10:47:38;;;;;;;6.97;1.80;;;13.00;99.90;;;;;;4971932;28;20468;-72
2023/11/14 10:50:05;;;;;;;6.23;2.07;;;13.00;99.90;;;;;;4971670;28;20470;-72
2023/11/14 10:52:34;;;;;;;5.53;1.60;;;13.00;99.90;;;;;;4972419;28;20490;-72
2023/11/14 10:55:05;;;;;;;7.23;3.73;;;13.00;99.90;;;;;;4969901;28;20467;-72
2023/11/14 10:57:32;;;;;;;9.60;3.53;;;13.00;99.90;;;;;;4970677;28;20502;-71
2023/11/14 11:00:00;;;;;;;4.23;1.93;;;13.00;99.90;;;;;;4970378;28;20474;-71
2023/11/14 11:02:32;;;;;;;9.07;1.80;;;13.00;99.90;;;;;;4968578;28;20489;-72
2023/11/14 11:05:02;;;;;;;4.70;2.70;;;13.10;99.90;;;;;;4971792;28;20572;-72
2023/11/14 11:07:30;;;;;;;4.00;1.73;;;13.20;99.90;;;;;;4971537;28;20463;-73
2023/11/14 11:09:57;;;;;;;8.40;1.90;;;13.30;99.90;;;;;;4969727;28;20478;-71
2023/11/14 11:12:27;;;;;;;7.57;2.27;;;13.20;99.90;;;;;;4969862;28;20497;-73
2023/11/14 11:14:55;;;;;;;3.17;1.57;;;13.20;99.90;;;;;;4970756;28;20894;-72
2023/11/14 11:17:39;;;;;;;7.17;1.73;;;13.20;99.90;;;;;;4969247;28;20950;-72
2023/11/14 11:20:09;;;;;;;6.50;1.97;;;13.30;99.90;;;;;;4971532;28;20532;-71
2023/11/14 11:23:01;;;;;;;2.07;1.20;;;13.30;99.90;;;;;;4971442;28;20996;-72
2023/11/14 11:25:29;;;;;;;6.23;1.77;;;13.30;99.90;;;;;;4964730;28;20972;-72
2023/11/14 11:27:57;;;;;;;4.57;1.40;;;13.40;99.90;;;;;;4969067;28;20886;-72
2023/11/14 11:30:24;;;;;;;4.00;1.40;;;13.40;99.90;;;;;;4970495;28;20458;-73
2023/11/14 11:32:55;;;;;;;4.57;2.20;;;13.50;99.90;;;;;;4969792;28;20585;-72
2023/11/14 11:35:34;;;;;;;3.53;1.63;;;13.50;99.90;;;;;;4968353;28;20965;-73
2023/11/14 11:38:09;;;;;;;4.03;1.80;;;13.60;99.90;;;;;;4967750;28;20481;-73
2023/11/14 11:40:36;;;;;;;8.70;2.00;;;13.70;99.90;;;;;;4973261;28;20478;-74
2023/11/14 11:43:24;;;;;;;3.60;1.70;;;13.70;99.90;;;;;;4977263;28;20484;-73
2023/11/14 11:45:51;;;;;;;3.63;2.07;;;13.80;99.90;;;;;;4973328;28;20498;-73
2023/11/14 11:48:30;;;;;;;5.60;2.47;;;13.80;99.90;;;;;;4975547;28;20470;-73
2023/11/14 11:51:20;;;;;;;10.63;2.20;;;13.70;99.90;;;;;;4975282;28;20517;-73
2023/11/14 11:53:49;;;;;;;6.93;1.60;;;13.80;99.90;;;;;;4970396;28;20896;-73
2023/11/14 11:56:40;;;;;;;3.73;2.13;;;13.80;99.90;;;;;;4973030;28;20474;-73
2023/11/14 11:59:08;;;;;;;7.07;1.90;;;13.70;99.90;;;;;;4973864;28;20466;-73
2023/11/14 12:01:35;;;;;;;4.13;1.70;;;13.60;99.90;;;;;;4973493;28;20466;-73
2023/11/14 12:04:02;;;;;;;1.50;1.43;;;13.60;99.90;;;;;;4972940;28;20489;-74
2023/11/14 12:06:29;;;;;;;4.60;1.83;;;13.60;99.90;;;;;;4969270;28;20621;-75
2023/11/14 12:08:56;;;;;;;3.67;1.53;;;13.60;99.90;;;;;;4973127;28;20472;-74
2023/11/14 12:11:23;;;;;;;5.10;1.30;;;13.60;99.90;;;;;;4971664;28;20477;-73
2023/11/14 12:13:53;;;;;;;10.67;2.27;;;13.60;99.90;;;;;;4973745;28;20483;-73
2023/11/14 12:16:22;;;;;;;6.63;1.60;;;13.60;99.90;;;;;;4972484;28;20553;-74
2023/11/14 12:18:49;;;;;;;3.43;1.43;;;13.50;99.90;;;;;;4968792;28;20564;-73
2023/11/14 12:21:17;;;;;;;1.70;1.27;;;13.50;99.90;;;;;;4969756;28;20470;-72
2023/11/14 12:23:44;;;;;;;2.00;0.90;;;13.50;99.90;;;;;;4974094;28;20494;-73
2023/11/14 12:26:11;;;;;;;4.00;1.27;;;13.50;99.90;;;;;;4971377;28;20803;-72
2023/11/14 12:28:39;;;;;;;6.40;1.60;;;13.50;99.90;;;;;;4975019;28;20471;-72
2023/11/14 12:31:07;;;;;;;6.30;1.90;;;13.50;99.90;;;;;;4973871;28;20513;-74
2023/11/14 12:33:45;;;;;;;3.43;2.40;;;13.50;99.90;;;;;;4971940;28;20807;-72
2023/11/14 12:36:22;;;;;;;2.77;1.60;;;13.40;99.90;;;;;;4974188;28;20470;-72
2023/11/14 12:38:49;;;;;;;2.17;1.40;;;13.40;99.90;;;;;;4971193;28;20524;-73
2023/11/14 12:41:24;;;;;;;6.73;1.63;;;13.20;99.90;;;;;;4969918;28;20477;-73
2023/11/14 12:43:50;;;;;;;7.40;1.53;;;12.90;99.90;;;;;;4973212;28;20484;-72
2023/11/14 12:46:28;;;;;;;2.00;1.13;;;12.70;99.90;;;;;;4970869;28;20517;-72
2023/11/14 12:49:13;;;;;;;3.37;1.43;;;12.40;99.90;;;;;;4970536;28;20475;-71
2023/11/14 12:51:43;;;;;;;6.57;1.50;;;12.30;99.90;;;;;;4972700;28;20484;-72
2023/11/14 12:54:10;;;;;;;6.00;1.57;;;12.10;99.90;;;;;;4973804;28;20459;-72
2023/11/14 12:56:38;;;;;;;4.72;1.52;;;12.00;99.90;;;;;;4973946;28;20543;-72
2023/11/14 12:59:05;;;;;;;1.40;1.30;;;11.90;99.90;;;;;;4972488;28;20223;-73
2023/11/14 13:01:33;;;;;;;5.80;1.57;;;11.80;99.90;;;;;;4974074;28;20213;-73
2023/11/14 13:04:00;;;;;;;3.90;1.63;;;11.60;99.90;;;;;;4975205;28;20483;-74
2023/11/14 13:06:29;;;;;;;3.13;1.38;;;11.60;99.90;;;;;;4971636;28;20631;-73
2023/11/14 13:08:58;;;;;;;3.58;1.75;;;11.50;99.90;;;;;;4970992;28;20212;-73
2023/11/14 13:11:25;;;;;;;2.90;1.83;;;11.60;99.90;;;;;;4970546;28;20642;-73
2023/11/14 13:13:51;;;;;;;1.40;1.08;;;11.60;99.90;;;;;;4967877;28;20468;-73
2023/11/14 13:16:18;;;;;;;2.20;1.83;;;11.60;99.90;;;;;;4969270;28;20239;-73
2023/11/14 13:18:45;;;;;;;6.93;2.67;;;11.70;99.90;;;;;;4972288;28;20460;-73
2023/11/14 13:21:12;;;;;;;2.77;1.60;;;11.60;99.90;;;;;;4970019;28;20468;-74
2023/11/14 13:23:41;;;;;;;5.68;2.35;;;11.60;99.90;;;;;;4972959;28;20479;-74
2023/11/14 13:26:08;;;;;;;3.60;2.92;;;11.60;99.90;;;;;;4973153;28;20885;-73
2023/11/14 13:28:35;;;;;;;5.80;2.25;;;11.50;99.90;;;;;;4971957;28;20212;-73
2023/11/14 13:31:01;;;;;;;3.70;2.67;;;11.50;99.90;;;;;;4972663;28;20271;-73
2023/11/14 13:33:28;;;;;;;5.93;2.35;;;11.50;99.90;;;;;;4973835;28;20687;-73
2023/11/14 13:35:55;;;;;;;4.78;1.70;;;11.50;99.90;;;;;;4973826;28;20209;-74
2023/11/14 13:38:24;;;;;;;5.22;1.52;;;11.50;99.90;;;;;;4966809;28;20793;-73
2023/11/14 13:40:53;;;;;;;5.22;1.50;;;11.50;99.90;;;;;;4969321;28;20316;-73
2023/11/14 13:43:19;;;;;;;5.97;1.85;;;11.50;99.90;;;;;;4972835;28;20232;-73
2023/11/14 13:45:48;;;;;;;10.35;2.97;;;11.50;99.90;;;;;;4973178;28;20238;-75
2023/11/14 13:48:14;;;;;;;5.68;1.80;;;11.40;99.90;;;;;;4973086;28;20215;-73
2023/11/14 13:50:41;;;;;;;2.85;1.65;;;11.40;99.90;;;;;;4971618;28;20208;-73
2023/11/14 13:53:09;;;;;;;8.55;1.95;;;11.30;99.90;;;;;;4971736;28;20656;-72
2023/11/14 13:55:35;;;;;;;6.88;2.45;;;11.30;99.90;;;;;;4971325;28;20200;-73
2023/11/14 13:58:05;;;;;;;11.30;3.28;;;11.30;99.90;;;;;;4971959;28;20214;-73
2023/11/14 14:00:31;;;;;;;3.03;1.70;;;11.30;99.90;;;;;;4970521;28;20208;-73
2023/11/14 14:02:58;;;;;;;8.57;2.35;;;11.30;99.90;;;;;;4971718;28;20233;-72
2023/11/14 14:05:25;;;;;;;5.35;2.72;;;11.20;99.90;;;;;;4966019;28;20696;-73
2023/11/14 14:07:51;;;;;;;5.82;2.58;;;11.20;99.90;;;;;;4963973;28;20211;-73
2023/11/14 14:10:18;;;;;;;5.90;1.95;;;11.20;99.90;;;;;;4971082;28;20219;-73
2023/11/14 14:12:46;;;;;;;7.10;1.88;;;11.20;99.90;;;;;;4972181;28;20230;-74
2023/11/14 14:15:16;;;;;;;5.70;2.00;;;11.30;99.90;;;;;;4971519;28;20660;-74
2023/11/14 14:17:44;;;;;;;1.90;1.45;;;11.20;99.90;;;;;;4971927;28;20543;-74
2023/11/14 14:20:11;;;;;;;5.07;1.42;;;11.20;99.90;;;;;;4971336;28;20204;-73
2023/11/14 14:22:39;;;;;;;2.28;1.70;;;11.20;99.90;;;;;;4967358;28;20329;-74
2023/11/14 14:25:08;;;;;;;7.40;1.80;;;11.10;99.90;;;;;;4969995;28;20242;-74
2023/11/14 14:27:35;;;;;;;2.65;1.25;;;11.10;99.90;;;;;;4969500;28;20295;-73
2023/11/14 14:30:03;;;;;;;4.47;1.30;;;11.00;99.90;;;;;;4970346;28;20211;-73
2023/11/14 14:32:31;;;;;;;12.57;2.15;;;11.00;99.90;;;;;;4969644;28;20725;-73
2023/11/14 14:34:59;;;;;;;2.67;1.30;;;11.00;99.90;;;;;;4971141;28;20212;-72
2023/11/14 14:37:26;;;;;;;6.82;2.08;;;11.00;99.90;;;;;;4967110;28;20205;-74
2023/11/14 14:39:52;;;;;;;6.90;1.48;;;11.00;99.90;;;;;;4968203;28;20211;-73
2023/11/14 14:42:20;;;;;;;1.90;1.80;;;11.00;99.90;;;;;;4968878;28;20725;-75
2023/11/14 14:44:46;;;;;;;10.25;1.60;;;11.00;99.90;;;;;;4964876;28;20757;-74
2023/11/14 14:47:15;;;;;;;5.38;1.50;;;11.00;99.90;;;;;;4972065;28;20220;-75
2023/11/14 14:49:43;;;;;;;4.10;1.60;;;11.00;99.90;;;;;;4969598;28;20231;-74
2023/11/14 14:52:11;;;;;;;2.33;1.30;;;11.00;99.90;;;;;;4970009;28;20283;-73
2023/11/14 14:54:38;;;;;;;4.18;1.25;;;11.10;99.90;;;;;;4971568;28;20624;-73
2023/11/14 14:57:06;;;;;;;1.80;1.65;;;11.00;99.90;;;;;;4968931;28;20204;-73
2023/11/14 14:59:33;;;;;;;8.82;2.45;;;11.00;99.90;;;;;;4970763;28;20212;-74
2023/11/14 15:01:59;;;;;;;3.35;1.30;;;11.00;99.90;;;;;;4971365;28;20242;-73
2023/11/14 15:04:26;;;;;;;4.82;1.35;;;11.00;99.90;;;;;;4968374;28;20712;-73
2023/11/14 15:06:55;;;;;;;1.38;1.25;;;11.00;99.90;;;;;;4970945;28;20203;-73
2023/11/14 15:09:24;;;;;;;2.25;1.55;;;10.90;99.90;;;;;;4972696;28;20204;-73
2023/11/14 15:11:53;;;;;;;1.55;1.45;;;10.90;99.90;;;;;;4974901;28;20263;-73
2023/11/14 15:14:20;;;;;;;7.63;1.90;;;10.90;99.90;;;;;;4971546;28;20223;-74
2023/11/14 15:16:47;;;;;;;3.75;2.60;;;10.80;99.90;;;;;;4974436;28;20212;-74
2023/11/14 15:19:13;;;;;;;1.73;1.40;;;10.80;99.90;;;;;;4974671;28;20294;-73
2023/11/14 15:21:40;;;;;;;2.25;2.10;;;10.70;99.90;;;;;;4970201;28;20235;-74
2023/11/14 15:24:09;;;;;;;2.88;1.05;;;10.70;99.90;;;;;;4974260;28;20238;-73
2023/11/14 15:26:36;;;;;;;1.00;1.00;;;10.70;99.90;;;;;;4970606;28;20215;-74
2023/11/14 15:29:03;;;;;;;3.47;1.45;;;10.60;99.90;;;;;;4974256;28;20219;-73
2023/11/14 15:31:33;;;;;;;5.63;1.98;;;10.60;99.90;;;;;;4974709;28;20718;-73
2023/11/14 15:33:59;;;;;;;5.00;1.45;;;10.60;99.90;;;;;;4975296;28;20212;-73
2023/11/14 15:36:27;;;;;;;4.43;2.17;;;10.60;99.90;;;;;;4972337;28;20207;-73
2023/11/14 15:38:53;;;;;;;3.28;1.58;;;10.60;99.90;;;;;;4974732;28;20208;-73
2023/11/14 15:41:22;;;;;;;4.28;1.45;;;10.60;99.90;;;;;;4974433;28;20623;-74
2023/11/14 15:43:48;;;;;;;7.75;2.00;;;10.50;99.90;;;;;;4974763;28;20563;-73
2023/11/14 15:46:19;;;;;;;14.35;2.13;;;10.60;99.90;;;;;;4968381;28;20239;-73
2023/11/14 15:48:46;;;;;;;4.88;1.92;;;10.50;99.90;;;;;;4970947;28;20219;-73
2023/11/14 15:51:13;;;;;;;3.13;1.55;;;10.50;99.90;;;;;;4971868;28;20305;-73
2023/11/14 15:53:39;;;;;;;2.95;1.48;;;10.60;99.90;;;;;;4971222;28;20314;-73
2023/11/14 15:56:07;;;;;;;1.55;1.45;;;10.60;99.90;;;;;;4971889;28;20382;-73
2023/11/14 15:58:35;;;;;;;4.10;1.80;;;10.60;99.90;;;;;;4973677;28;20313;-73
2023/11/14 16:01:02;;;;;;;1.20;1.20;;;10.60;99.90;;;;;;4973498;28;20856;-72
2023/11/14 16:03:34;;;;;;;3.95;1.60;;;10.60;99.90;;;;;;4975241;28;20263;-73
2023/11/14 16:06:02;;;;;;;2.90;1.30;;;10.60;99.90;;;;;;4977314;28;20626;-73
2023/11/14 16:08:29;;;;;;;4.65;1.55;;;10.70;99.90;;;;;;4974205;28;20243;-73
2023/11/14 16:10:57;;;;;;;6.38;1.85;;;10.70;99.90;;;;;;4974506;28;20690;-73
2023/11/14 16:13:24;;;;;;;2.72;1.40;;;10.70;99.90;;;;;;4971971;28;20227;-73
2023/11/14 16:15:52;;;;;;;3.80;1.80;;;10.70;99.90;;;;;;4972977;28;20201;-73
2023/11/14 16:18:19;;;;;;;3.22;1.27;;;10.70;99.90;;;;;;4974421;28;20693;-73
2023/11/14 16:20:47;;;;;;;3.33;2.13;;;10.70;99.90;;;;;;4972781;28;20230;-73
2023/11/14 16:23:14;;;;;;;7.72;2.17;;;10.70;99.90;;;;;;4972379;28;20228;-73
2023/11/14 16:25:42;;;;;;;2.20;2.10;;;10.70;99.90;;;;;;4974672;28;20236;-73
2023/11/14 16:28:09;;;;;;;7.78;2.00;;;10.70;99.90;;;;;;4973275;28;20774;-73
2023/11/14 16:30:36;;;;;;;5.32;1.60;;;10.60;99.90;;;;;;4973643;28;20242;-73
2023/11/14 16:33:05;;;;;;;3.05;1.60;;;10.60;99.90;;;;;;4972800;28;20287;-73
2023/11/14 16:35:31;;;;;;;4.90;1.60;;;10.50;99.90;;;;;;4973525;28;20204;-73
2023/11/14 16:37:59;;;;;;;7.13;2.10;;;10.50;99.90;;;;;;4972561;28;20561;-73
2023/11/14 16:40:26;;;;;;;5.18;1.92;;;10.50;99.90;;;;;;4974199;28;20291;-73
2023/11/14 16:42:52;;;;;;;5.95;2.28;;;10.50;99.90;;;;;;4973045;28;20238;-72
2023/11/14 16:45:19;;;;;;;5.20;1.65;;;10.50;99.90;;;;;;4970846;28;20262;-75
2023/11/14 16:47:46;;;;;;;4.78;1.73;;;10.50;99.90;;;;;;4973645;28;20243;-75
2023/11/14 16:50:15;;;;;;;5.57;2.33;;;10.50;99.90;;;;;;4968398;28;20211;-75
2023/11/14 16:52:42;;;;;;;1.85;1.65;;;10.50;99.90;;;;;;4971528;28;20259;-75
2023/11/14 16:55:09;;;;;;;5.72;2.10;;;10.50;99.90;;;;;;4971764;28;20304;-75
2023/11/14 16:57:38;;;;;;;5.18;2.00;;;10.40;99.90;;;;;;4970492;28;20214;-75
2023/11/14 17:00:07;;;;;;;6.90;2.03;;;10.50;99.90;;;;;;4973613;28;20211;-74
2023/11/14 17:02:34;;;;;;;5.70;2.10;;;10.40;99.90;;;;;;4972972;28;20229;-74
2023/11/14 17:05:01;;;;;;;2.55;1.85;;;10.40;99.90;;;;;;4973058;28;20228;-75
2023/11/14 17:07:30;;;;;;;7.00;1.95;;;10.40;99.90;;;;;;4971444;28;20215;-74
2023/11/14 17:09:57;;;;;;;7.38;2.00;;;10.40;99.90;;;;;;4972155;28;20274;-74
2023/11/14 17:12:24;;;;;;;3.78;2.55;;;10.30;99.90;;;;;;4972459;28;20232;-74
2023/11/14 17:14:50;;;;;;;5.15;2.45;;;10.30;99.90;;;;;;4972619;28;20212;-74
2023/11/14 17:17:18;;;;;;;5.28;3.30;;;10.30;99.90;;;;;;4973655;28;20207;-74
2023/11/14 17:19:46;;;;;;;4.07;2.30;;;10.30;99.90;;;;;;4969608;28;20291;-74
2023/11/14 17:22:12;;;;;;;2.28;2.17;;;10.30;99.90;;;;;;4967873;28;20363;-74
2023/11/14 17:24:41;;;;;;;6.53;3.63;;;10.30;99.90;;;;;;4973146;28;20588;-74
2023/11/14 17:27:08;;;;;;;4.07;2.35;;;10.20;99.90;;;;;;4972743;28;20232;-74
2023/11/14 17:29:35;;;;;;;4.38;2.47;;;10.20;99.90;;;;;;4971812;28;20212;-74
2023/11/14 17:32:02;;;;;;;6.85;2.45;;;10.20;99.90;;;;;;4972626;28;20231;-74
2023/11/14 17:34:29;;;;;;;2.95;2.53;;;10.20;99.90;;;;;;4972117;28;20236;-74
2023/11/14 17:36:57;;;;;;;1.88;1.77;;;10.20;99.90;;;;;;4969433;28;20291;-74
2023/11/14 17:39:24;;;;;;;4.25;2.53;;;10.20;99.90;;;;;;4972997;28;20303;-75
2023/11/14 17:41:52;;;;;;;8.57;2.60;;;10.20;99.90;;;;;;4971483;28;20584;-75
2023/11/14 17:44:21;;;;;;;4.70;2.40;;;10.30;99.90;;;;;;4996832;23;20570;-74
2023/11/14 17:46:48;;;;;;;1.90;1.80;;;10.20;99.90;;;;;;4969847;28;20283;-74
2023/11/14 17:49:15;;;;;;;7.22;2.78;;;10.30;99.90;;;;;;4966865;28;20314;-74